Time;durP1;ratioP1;P1;durP2;ratioP2;P2;SDS_P1;SDS_P2;PMS_P1;PMS_P2;Temp;Humidity;BMP_temperature;BMP_pressure;BME280_temperature;BME280_humidity;BME280_pressure;Samples;Min_cycle;Max_cycle;Signal;HPM_P1;HPM_P2
2022/01/29 00:02:23;;;;;;;18.48;2.88;;;2.20;99.90;;;;;;5028537;28;20060;-87
2022/01/29 00:04:50;;;;;;;18.83;3.65;;;2.30;99.90;;;;;;5014420;28;20046;-86
2022/01/29 00:07:17;;;;;;;20.15;3.95;;;2.40;99.90;;;;;;5016110;28;20061;-87
2022/01/29 00:09:45;;;;;;;17.05;3.75;;;2.50;99.90;;;;;;5032615;28;20053;-86
2022/01/29 00:12:12;;;;;;;22.58;4.00;;;2.50;99.90;;;;;;5017203;28;20478;-86
2022/01/29 00:14:39;;;;;;;19.08;3.72;;;2.50;99.90;;;;;;5015779;28;20048;-85
2022/01/29 00:17:06;;;;;;;16.23;3.17;;;2.50;99.90;;;;;;5017350;28;20088;-85
2022/01/29 00:19:32;;;;;;;11.85;2.95;;;2.50;99.90;;;;;;5032768;28;20045;-86
2022/01/29 00:22:03;;;;;;;11.43;2.50;;;2.50;99.90;;;;;;5017024;28;20053;-86
2022/01/29 00:24:30;;;;;;;15.55;3.80;;;2.50;99.90;;;;;;5016970;28;20049;-85
2022/01/29 00:26:56;;;;;;;13.93;3.35;;;2.50;99.90;;;;;;5032146;28;20049;-86
2022/01/29 00:29:23;;;;;;;10.65;3.10;;;2.40;99.90;;;;;;5032000;28;20053;-86
2022/01/29 00:31:50;;;;;;;13.18;3.20;;;2.30;99.90;;;;;;5032351;28;20054;-85
2022/01/29 00:34:17;;;;;;;18.02;3.38;;;2.30;99.90;;;;;;5032278;28;20467;-86
2022/01/29 00:36:43;;;;;;;10.57;2.95;;;2.30;99.90;;;;;;5016865;28;20064;-86
2022/01/29 00:39:10;;;;;;;11.73;3.33;;;2.30;99.90;;;;;;5031958;28;20414;-86
2022/01/29 00:41:37;;;;;;;11.23;3.15;;;2.30;99.90;;;;;;5015713;28;20410;-86
2022/01/29 00:44:04;;;;;;;12.90;3.50;;;2.30;99.90;;;;;;5031944;28;20050;-86
2022/01/29 00:46:31;;;;;;;12.75;3.50;;;2.20;99.90;;;;;;5016607;28;20089;-85
2022/01/29 00:48:58;;;;;;;12.60;3.17;;;2.20;99.90;;;;;;5016405;28;20046;-86
2022/01/29 00:51:24;;;;;;;15.82;3.35;;;2.20;99.90;;;;;;5031915;28;20053;-86
2022/01/29 00:53:51;;;;;;;16.98;3.33;;;2.20;99.90;;;;;;5031916;28;20406;-86
2022/01/29 00:56:18;;;;;;;14.55;3.67;;;2.30;99.90;;;;;;5031464;28;20053;-86
2022/01/29 00:58:45;;;;;;;17.77;3.13;;;2.30;99.90;;;;;;5031466;28;20089;-86
2022/01/29 01:01:11;;;;;;;11.95;3.40;;;2.40;99.90;;;;;;5016462;28;20417;-84
2022/01/29 01:03:38;;;;;;;11.98;3.20;;;2.50;99.90;;;;;;5031442;28;20050;-86
2022/01/29 01:06:05;;;;;;;17.33;3.25;;;2.50;99.90;;;;;;5016167;28;20057;-86
2022/01/29 01:08:32;;;;;;;13.98;3.30;;;2.60;99.90;;;;;;5016200;28;20132;-86
2022/01/29 01:10:59;;;;;;;12.23;3.70;;;2.70;99.90;;;;;;5031443;28;20045;-86
2022/01/29 01:13:26;;;;;;;13.98;2.80;;;2.80;99.90;;;;;;5031367;28;20054;-86
2022/01/29 01:15:53;;;;;;;10.13;2.92;;;2.90;99.90;;;;;;5030440;28;20042;-86
2022/01/29 01:18:20;;;;;;;13.02;2.65;;;2.90;99.90;;;;;;5015872;28;20143;-85
2022/01/29 01:20:46;;;;;;;12.57;3.60;;;3.00;99.90;;;;;;5031370;28;20081;-85
2022/01/29 01:23:13;;;;;;;11.48;3.17;;;3.10;99.90;;;;;;5015352;28;20056;-85
2022/01/29 01:25:40;;;;;;;11.07;3.67;;;3.10;99.90;;;;;;5015684;28;20046;-85
2022/01/29 01:28:08;;;;;;;11.18;3.13;;;3.20;99.90;;;;;;5031201;28;20056;-85
2022/01/29 01:30:36;;;;;;;12.40;3.90;;;3.20;99.90;;;;;;5031296;28;20149;-86
2022/01/29 01:33:04;;;;;;;12.45;3.58;;;3.10;99.90;;;;;;5014842;28;20128;-86
2022/01/29 01:35:37;;;;;;;14.77;3.78;;;3.20;99.90;;;;;;5015818;28;20054;-86
2022/01/29 01:38:34;;;;;;;12.77;3.80;;;3.30;99.90;;;;;;5015574;28;20057;-86
2022/01/29 01:40:56;;;;;;;16.08;4.65;;;3.30;99.90;;;;;;5015474;28;20058;-85
2022/01/29 01:43:23;;;;;;;11.15;4.03;;;3.30;99.90;;;;;;5031032;28;20045;-86
2022/01/29 01:45:50;;;;;;;17.40;5.05;;;3.30;99.90;;;;;;5030702;28;20049;-87
2022/01/29 01:48:17;;;;;;;11.30;4.55;;;3.30;99.90;;;;;;5030429;28;20057;-85
2022/01/29 01:50:44;;;;;;;10.27;4.68;;;3.30;99.90;;;;;;5030646;28;20411;-87
2022/01/29 01:53:11;;;;;;;8.45;4.35;;;3.40;99.90;;;;;;5030915;28;20073;-85
2022/01/29 01:55:38;;;;;;;11.50;5.13;;;3.40;99.90;;;;;;5030651;28;20046;-86
2022/01/29 01:58:05;;;;;;;9.20;4.10;;;3.40;99.90;;;;;;5030561;28;20048;-85
2022/01/29 02:00:33;;;;;;;11.32;4.90;;;3.40;99.90;;;;;;5030733;28;20054;-86
2022/01/29 02:02:59;;;;;;;10.35;4.93;;;3.40;99.90;;;;;;5014964;28;20046;-86
2022/01/29 02:05:27;;;;;;;11.88;5.07;;;3.40;99.90;;;;;;5014883;28;20453;-86
2022/01/29 02:07:54;;;;;;;14.70;5.70;;;3.40;99.90;;;;;;5014970;28;20050;-85
2022/01/29 02:10:24;;;;;;;8.88;5.35;;;3.40;99.90;;;;;;5015265;28;20042;-86
2022/01/29 02:12:58;;;;;;;14.30;6.00;;;3.40;99.90;;;;;;5030988;28;20053;-86
2022/01/29 02:15:26;;;;;;;10.90;6.43;;;3.50;99.90;;;;;;5030651;28;20049;-86
2022/01/29 02:17:53;;;;;;;9.27;5.85;;;3.50;99.90;;;;;;5014597;28;20049;-86
2022/01/29 02:20:26;;;;;;;10.05;6.25;;;3.50;99.90;;;;;;5030388;28;20050;-86
2022/01/29 02:22:53;;;;;;;11.63;6.53;;;3.50;99.90;;;;;;5014850;28;20042;-86
2022/01/29 02:25:34;;;;;;;17.73;6.50;;;3.50;99.90;;;;;;5014946;28;20057;-86
2022/01/29 02:28:05;;;;;;;10.50;6.57;;;3.50;99.90;;;;;;5014211;28;20056;-87
2022/01/29 02:30:34;;;;;;;8.55;6.35;;;3.50;99.90;;;;;;5030141;28;20053;-86
2022/01/29 02:33:07;;;;;;;12.13;6.65;;;3.60;99.90;;;;;;5014680;28;20494;-86
2022/01/29 02:35:41;;;;;;;12.40;6.32;;;3.60;99.90;;;;;;5030155;28;20056;-86
2022/01/29 02:38:09;;;;;;;8.63;6.43;;;3.50;99.90;;;;;;5030278;28;20053;-86
2022/01/29 02:40:44;;;;;;;10.00;6.32;;;3.50;99.90;;;;;;5014010;28;20068;-85
2022/01/29 02:43:25;;;;;;;12.52;7.15;;;3.50;99.90;;;;;;5029983;28;20053;-87
2022/01/29 02:45:53;;;;;;;11.23;6.57;;;3.50;99.90;;;;;;5014377;28;20099;-86
2022/01/29 02:48:22;;;;;;;13.55;6.57;;;3.50;99.90;;;;;;5030165;28;20054;-87
2022/01/29 02:50:50;;;;;;;11.40;6.47;;;3.50;99.90;;;;;;5029417;28;20073;-84
2022/01/29 02:53:17;;;;;;;9.45;6.55;;;3.50;99.90;;;;;;5029196;28;20050;-85
2022/01/29 02:55:44;;;;;;;10.13;6.60;;;3.50;99.90;;;;;;5014283;28;20056;-88
2022/01/29 02:58:10;;;;;;;10.98;6.43;;;3.50;99.90;;;;;;5029563;28;20076;-86
2022/01/29 03:00:37;;;;;;;8.90;6.47;;;3.60;99.90;;;;;;5014218;28;20042;-86
2022/01/29 03:03:04;;;;;;;10.65;5.82;;;3.60;99.90;;;;;;5029129;28;20073;-86
2022/01/29 03:05:32;;;;;;;9.05;6.13;;;3.60;99.90;;;;;;5029002;28;20050;-87
2022/01/29 03:07:58;;;;;;;9.52;5.82;;;3.60;99.90;;;;;;5013567;28;20491;-85
2022/01/29 03:10:25;;;;;;;7.72;5.53;;;3.50;99.90;;;;;;5029241;28;20042;-86
2022/01/29 03:12:52;;;;;;;9.93;6.00;;;3.60;99.90;;;;;;5013748;28;20519;-86
2022/01/29 03:15:19;;;;;;;12.70;6.47;;;3.60;99.90;;;;;;5013760;28;20403;-86
2022/01/29 03:17:46;;;;;;;10.45;6.22;;;3.60;99.90;;;;;;5029004;28;20426;-86
2022/01/29 03:20:13;;;;;;;9.75;6.60;;;3.60;99.90;;;;;;5028665;28;20082;-86
2022/01/29 03:22:40;;;;;;;11.30;7.05;;;3.70;99.90;;;;;;5028332;28;20410;-85
2022/01/29 03:25:08;;;;;;;9.70;6.32;;;3.70;99.90;;;;;;5013199;28;20056;-86
2022/01/29 03:27:35;;;;;;;8.43;6.15;;;3.70;99.90;;;;;;5013487;28;20372;-86
2022/01/29 03:30:06;;;;;;;12.57;6.25;;;3.60;99.90;;;;;;5028598;28;20049;-86
2022/01/29 03:32:33;;;;;;;9.85;6.55;;;3.70;99.90;;;;;;5013269;28;20581;-86
2022/01/29 03:35:00;;;;;;;9.50;6.45;;;3.70;99.90;;;;;;5013165;28;20403;-86
2022/01/29 03:37:27;;;;;;;13.30;6.25;;;3.70;99.90;;;;;;5013488;28;20060;-86
2022/01/29 03:39:58;;;;;;;10.20;7.25;;;3.60;99.90;;;;;;5027851;28;20104;-86
2022/01/29 03:42:27;;;;;;;10.50;6.65;;;3.60;99.90;;;;;;5028713;28;20510;-86
2022/01/29 03:44:54;;;;;;;12.68;7.10;;;3.70;99.90;;;;;;5028086;28;20061;-86
2022/01/29 03:47:21;;;;;;;12.65;7.32;;;3.70;99.90;;;;;;5028195;28;20053;-86
2022/01/29 03:49:48;;;;;;;9.85;6.57;;;3.70;99.90;;;;;;5012172;28;20050;-86
2022/01/29 03:52:16;;;;;;;10.50;6.80;;;3.70;99.90;;;;;;5028532;28;20060;-86
2022/01/29 03:54:43;;;;;;;8.43;6.60;;;3.70;99.90;;;;;;5013164;28;20072;-85
2022/01/29 03:57:10;;;;;;;8.02;6.28;;;3.80;99.90;;;;;;5028287;28;20054;-86
2022/01/29 03:59:37;;;;;;;8.15;6.47;;;3.80;99.90;;;;;;5012952;28;20065;-86
2022/01/29 04:02:03;;;;;;;12.55;7.05;;;3.90;99.90;;;;;;5012883;28;20052;-86
2022/01/29 04:04:30;;;;;;;10.80;6.97;;;3.90;99.90;;;;;;5013052;28;20045;-86
2022/01/29 04:07:04;;;;;;;11.15;6.95;;;3.90;99.90;;;;;;5013028;28;20056;-86
2022/01/29 04:09:31;;;;;;;10.25;7.32;;;3.90;99.90;;;;;;5028564;28;20058;-86
2022/01/29 04:11:58;;;;;;;12.77;7.35;;;4.00;99.90;;;;;;5028363;28;20398;-85
2022/01/29 04:14:32;;;;;;;11.68;7.15;;;4.00;99.90;;;;;;5028017;28;20100;-86
2022/01/29 04:16:59;;;;;;;13.82;7.97;;;3.90;99.90;;;;;;5028143;28;20077;-86
2022/01/29 04:19:26;;;;;;;29.55;8.85;;;3.90;99.90;;;;;;5012201;28;20069;-86
2022/01/29 04:21:53;;;;;;;10.68;6.80;;;3.90;99.90;;;;;;5028058;28;20050;-86
2022/01/29 04:24:20;;;;;;;10.88;7.05;;;3.90;99.90;;;;;;5012794;28;20505;-86
2022/01/29 04:26:46;;;;;;;9.77;7.35;;;3.90;99.90;;;;;;5012542;28;20050;-86
2022/01/29 04:29:14;;;;;;;10.98;7.45;;;3.90;99.90;;;;;;5027726;28;20072;-86
2022/01/29 04:31:57;;;;;;;10.88;7.47;;;3.90;99.90;;;;;;5028327;28;20046;-86
2022/01/29 04:34:24;;;;;;;15.70;8.07;;;4.00;99.90;;;;;;5013017;28;20045;-85
2022/01/29 04:36:51;;;;;;;10.80;8.05;;;3.90;99.90;;;;;;5027930;28;20092;-85
2022/01/29 04:39:23;;;;;;;13.85;8.13;;;3.90;99.90;;;;;;5012330;28;20057;-85
2022/01/29 04:41:50;;;;;;;16.88;8.63;;;3.90;99.90;;;;;;5027671;28;20072;-85
2022/01/29 04:44:17;;;;;;;13.23;8.65;;;3.90;99.90;;;;;;5012802;28;20050;-86
2022/01/29 04:46:44;;;;;;;14.68;8.95;;;3.90;99.90;;;;;;5028401;28;20054;-86
2022/01/29 04:49:11;;;;;;;14.57;9.05;;;3.90;99.90;;;;;;5012034;28;20069;-86
2022/01/29 04:51:38;;;;;;;17.90;9.93;;;3.80;99.90;;;;;;5015055;28;20050;-86
2022/01/29 04:54:05;;;;;;;15.75;9.48;;;3.80;99.90;;;;;;5031601;28;20168;-86
2022/01/29 04:56:31;;;;;;;15.90;9.93;;;3.80;99.90;;;;;;5032076;28;20132;-86
2022/01/29 04:58:58;;;;;;;15.63;10.20;;;3.80;99.90;;;;;;5032014;28;20052;-87
2022/01/29 05:01:25;;;;;;;14.23;10.10;;;3.80;99.90;;;;;;5015343;28;20057;-86
2022/01/29 05:03:52;;;;;;;16.58;10.30;;;3.80;99.90;;;;;;5015244;28;20057;-86
2022/01/29 05:06:20;;;;;;;12.88;9.13;;;3.80;99.90;;;;;;5015065;28;20085;-86
2022/01/29 05:08:47;;;;;;;17.00;9.68;;;3.80;99.90;;;;;;5031215;28;20089;-85
2022/01/29 05:11:15;;;;;;;14.57;9.52;;;3.80;99.90;;;;;;5031565;28;20046;-85
2022/01/29 05:13:43;;;;;;;13.82;8.68;;;3.80;99.90;;;;;;5031710;28;20103;-87
2022/01/29 05:27:00;;;;;;;15.82;8.98;;;3.90;99.90;;;;;;5016180;28;20041;-86
2022/01/29 05:29:30;;;;;;;12.75;8.05;;;3.90;99.90;;;;;;5031419;28;20052;-88
2022/01/29 05:31:59;;;;;;;10.27;7.70;;;3.90;99.90;;;;;;5016341;28;20569;-86
2022/01/29 05:34:26;;;;;;;12.43;8.23;;;3.90;99.90;;;;;;5031640;28;20049;-86
2022/01/29 05:36:53;;;;;;;12.15;8.25;;;3.90;99.90;;;;;;5015827;28;20042;-88
2022/01/29 05:39:21;;;;;;;12.35;7.63;;;3.90;99.90;;;;;;5015961;28;20053;-86
2022/01/29 05:41:48;;;;;;;13.23;7.68;;;3.90;99.90;;;;;;5031012;28;20057;-85
2022/01/29 05:44:15;;;;;;;12.45;7.43;;;3.90;99.90;;;;;;5030849;28;20068;-86
2022/01/29 05:46:42;;;;;;;12.50;6.93;;;3.90;99.90;;;;;;5030975;28;20514;-87
2022/01/29 05:49:08;;;;;;;8.88;6.47;;;3.90;99.90;;;;;;5031076;28;20433;-87
2022/01/29 05:51:35;;;;;;;9.70;7.18;;;3.90;99.90;;;;;;5015774;28;20046;-85
2022/01/29 05:54:02;;;;;;;10.50;6.80;;;3.90;99.90;;;;;;5015389;28;20054;-86
2022/01/29 05:56:30;;;;;;;8.48;6.25;;;3.90;99.90;;;;;;5030637;28;20038;-87
2022/01/29 05:58:57;;;;;;;8.85;6.18;;;3.90;99.90;;;;;;5030986;28;20476;-88
2022/01/29 06:01:24;;;;;;;9.30;6.47;;;3.90;99.90;;;;;;5031300;28;20509;-86
2022/01/29 06:03:51;;;;;;;8.35;6.00;;;3.90;99.90;;;;;;5030196;28;20050;-87
2022/01/29 06:06:19;;;;;;;9.15;5.72;;;3.90;99.90;;;;;;5015373;28;20462;-86
2022/01/29 06:08:45;;;;;;;8.85;5.82;;;4.00;99.90;;;;;;5030539;28;20217;-86
2022/01/29 06:11:12;;;;;;;11.18;6.18;;;4.00;99.90;;;;;;5030693;28;20132;-87
2022/01/29 06:13:39;;;;;;;7.10;5.80;;;3.90;99.90;;;;;;5015126;28;20084;-87
2022/01/29 06:16:06;;;;;;;8.25;5.88;;;3.90;99.90;;;;;;5030232;28;20056;-85
2022/01/29 06:18:33;;;;;;;7.90;5.80;;;3.90;99.90;;;;;;5014885;28;20136;-87
2022/01/29 06:21:04;;;;;;;7.57;5.25;;;3.90;99.90;;;;;;5030067;28;20562;-87
2022/01/29 06:23:34;;;;;;;9.75;4.97;;;3.90;99.90;;;;;;5030063;28;20108;-86
2022/01/29 06:26:04;;;;;;;8.77;5.57;;;3.90;99.90;;;;;;5030228;28;20056;-86
2022/01/29 06:28:31;;;;;;;7.53;5.60;;;3.90;99.90;;;;;;5030212;28;20056;-86
2022/01/29 06:30:59;;;;;;;6.50;4.80;;;3.90;99.90;;;;;;5030233;28;20105;-87
2022/01/29 06:33:28;;;;;;;8.52;4.97;;;3.80;99.90;;;;;;5014923;28;20054;-86
2022/01/29 06:35:55;;;;;;;5.28;4.47;;;3.80;99.90;;;;;;5029704;28;20510;-90
2022/01/29 06:38:22;;;;;;;6.50;4.90;;;3.80;99.90;;;;;;5030128;28;20180;-88
2022/01/29 06:40:49;;;;;;;6.80;4.45;;;3.80;99.90;;;;;;5029753;28;20415;-87
2022/01/29 06:43:16;;;;;;;5.25;4.20;;;3.70;99.90;;;;;;5014573;28;20046;-87
2022/01/29 06:45:44;;;;;;;5.55;4.70;;;3.70;99.90;;;;;;5029961;28;20046;-88
2022/01/29 06:48:12;;;;;;;5.43;4.45;;;3.70;99.90;;;;;;5029874;28;20054;-88
2022/01/29 06:50:39;;;;;;;5.45;3.60;;;3.70;99.90;;;;;;5029521;28;20487;-86
2022/01/29 06:53:07;;;;;;;4.93;4.13;;;3.60;99.90;;;;;;5029884;28;20053;-88
2022/01/29 06:55:34;;;;;;;6.30;4.53;;;3.60;99.90;;;;;;5012569;28;20046;-88
2022/01/29 06:58:01;;;;;;;4.85;4.10;;;3.60;99.90;;;;;;5029660;28;20081;-87
2022/01/29 07:00:48;;;;;;;6.70;4.43;;;3.60;99.90;;;;;;5014036;28;20072;-86
2022/01/29 07:03:15;;;;;;;5.22;4.13;;;3.60;99.90;;;;;;5029262;28;20054;-88
2022/01/29 07:05:42;;;;;;;4.40;4.00;;;3.60;99.90;;;;;;5029394;28;20045;-85
2022/01/29 07:08:08;;;;;;;4.35;3.95;;;3.50;99.90;;;;;;5014096;28;20049;-89
2022/01/29 07:10:37;;;;;;;4.57;3.67;;;3.50;99.90;;;;;;5029549;28;20048;-85
2022/01/29 07:13:06;;;;;;;4.68;4.22;;;3.50;99.90;;;;;;5013879;28;20057;-86
2022/01/29 07:15:36;;;;;;;5.43;4.10;;;3.50;99.90;;;;;;5029167;28;20129;-87
2022/01/29 07:18:04;;;;;;;5.53;4.40;;;3.50;99.90;;;;;;5014356;28;20093;-87
2022/01/29 07:20:30;;;;;;;4.57;4.13;;;3.50;99.90;;;;;;5029608;28;20053;-87
2022/01/29 07:22:57;;;;;;;4.55;4.15;;;3.50;99.90;;;;;;5028943;28;20054;-88
2022/01/29 07:25:25;;;;;;;4.68;3.97;;;3.50;99.90;;;;;;5029334;28;20042;-86
2022/01/29 07:27:53;;;;;;;5.82;4.50;;;3.50;99.90;;;;;;5013609;28;20471;-87
2022/01/29 07:30:19;;;;;;;5.53;4.43;;;3.50;99.90;;;;;;5029184;28;20052;-86
2022/01/29 07:32:46;;;;;;;8.15;4.80;;;3.50;99.90;;;;;;5014059;28;20421;-88
2022/01/29 07:35:14;;;;;;;6.05;4.53;;;3.60;99.90;;;;;;5029881;28;20137;-88
2022/01/29 07:37:40;;;;;;;6.97;4.72;;;3.60;99.90;;;;;;5031563;28;20042;-87
2022/01/29 07:40:08;;;;;;;8.63;4.70;;;3.60;99.90;;;;;;5030643;28;20120;-85
2022/01/29 07:42:36;;;;;;;6.43;4.32;;;3.60;99.90;;;;;;5030605;28;20134;-86
2022/01/29 07:45:03;;;;;;;5.70;4.47;;;3.70;99.90;;;;;;5030563;28;20054;-89
2022/01/29 07:47:30;;;;;;;5.60;4.40;;;3.70;99.90;;;;;;5029143;28;20082;-86
2022/01/29 07:49:57;;;;;;;5.20;4.13;;;3.70;99.90;;;;;;5028789;28;20132;-88
2022/01/29 07:52:24;;;;;;;4.68;4.28;;;3.70;99.90;;;;;;5012641;28;20102;-86
2022/01/29 07:54:50;;;;;;;5.30;4.80;;;3.80;99.90;;;;;;5028499;28;20125;-87
2022/01/29 07:57:17;;;;;;;7.20;5.07;;;3.80;99.90;;;;;;5028216;28;20050;-88
2022/01/29 07:59:47;;;;;;;6.63;5.25;;;3.80;99.90;;;;;;5030000;28;20057;-87
2022/01/29 08:02:15;;;;;;;7.20;5.07;;;3.90;99.90;;;;;;5029288;28;20073;-88
2022/01/29 08:04:42;;;;;;;7.63;5.50;;;3.90;99.90;;;;;;5013089;28;20058;-86
2022/01/29 08:07:09;;;;;;;6.15;5.18;;;3.90;99.90;;;;;;5014094;28;20053;-87
2022/01/29 08:09:36;;;;;;;7.03;5.57;;;3.90;99.90;;;;;;5017244;28;20077;-86
2022/01/29 08:12:03;;;;;;;8.18;5.60;;;3.90;99.90;;;;;;5032156;28;20523;-87
2022/01/29 08:14:33;;;;;;;9.65;6.32;;;3.90;99.90;;;;;;5030133;28;20449;-88
2022/01/29 08:17:00;;;;;;;7.72;5.82;;;3.90;99.90;;;;;;5014586;28;20080;-86
2022/01/29 08:19:26;;;;;;;10.73;6.35;;;4.00;99.90;;;;;;5029661;28;20129;-86
2022/01/29 08:21:53;;;;;;;9.32;6.50;;;4.00;99.90;;;;;;5012753;28;20092;-87
2022/01/29 08:24:20;;;;;;;9.18;6.47;;;4.10;99.90;;;;;;5029321;28;20046;-86
2022/01/29 08:26:47;;;;;;;12.60;6.75;;;4.10;99.90;;;;;;5032607;28;20577;-87
2022/01/29 08:29:14;;;;;;;11.82;6.35;;;4.20;99.90;;;;;;5018542;28;20049;-88
2022/01/29 08:31:40;;;;;;;6.82;5.78;;;4.20;99.90;;;;;;5017367;28;20056;-87
2022/01/29 08:34:07;;;;;;;8.32;6.03;;;4.20;99.90;;;;;;5032160;28;20054;-87
2022/01/29 08:36:34;;;;;;;8.63;6.40;;;4.20;99.90;;;;;;5016941;28;20050;-86
2022/01/29 08:39:01;;;;;;;7.05;5.43;;;4.30;99.90;;;;;;5016306;28;20096;-85
2022/01/29 08:41:28;;;;;;;7.80;5.63;;;4.40;99.90;;;;;;5017011;28;20050;-87
2022/01/29 08:43:55;;;;;;;9.85;6.03;;;4.50;99.90;;;;;;5032065;28;20046;-88
2022/01/29 08:46:22;;;;;;;7.30;5.35;;;4.50;99.90;;;;;;5031933;28;20089;-87
2022/01/29 08:48:49;;;;;;;6.82;5.15;;;4.60;99.90;;;;;;5016277;28;20092;-86
2022/01/29 08:51:17;;;;;;;9.25;5.35;;;4.70;99.90;;;;;;5031897;28;20080;-89
2022/01/29 08:53:43;;;;;;;7.15;4.70;;;4.70;99.90;;;;;;5031702;28;20060;-88
2022/01/29 08:56:10;;;;;;;9.23;5.32;;;4.80;99.90;;;;;;5015137;28;20050;-87
2022/01/29 08:58:43;;;;;;;7.28;4.90;;;4.70;99.90;;;;;;5015731;28;20057;-86
2022/01/29 09:01:11;;;;;;;6.30;4.85;;;4.70;99.90;;;;;;5031844;28;20052;-86
2022/01/29 09:03:38;;;;;;;4.90;4.40;;;4.80;99.90;;;;;;5031547;28;20434;-87
2022/01/29 09:06:06;;;;;;;6.65;4.38;;;4.80;99.90;;;;;;5031348;28;20073;-87
2022/01/29 09:08:33;;;;;;;5.55;3.97;;;5.10;99.90;;;;;;5031700;28;20096;-87
2022/01/29 09:11:00;;;;;;;3.67;3.30;;;5.20;99.90;;;;;;5031303;28;20056;-87
2022/01/29 09:13:27;;;;;;;3.60;3.30;;;5.20;99.90;;;;;;5031575;28;20048;-86
2022/01/29 09:15:55;;;;;;;5.20;3.78;;;5.30;99.90;;;;;;5031361;28;20076;-87
2022/01/29 09:18:22;;;;;;;3.88;3.58;;;5.30;99.90;;;;;;5031218;28;20211;-87
2022/01/29 09:20:49;;;;;;;3.85;3.40;;;5.20;99.90;;;;;;5015749;28;20054;-87
2022/01/29 09:23:16;;;;;;;4.30;3.10;;;5.20;99.90;;;;;;5030996;28;20136;-85
2022/01/29 09:25:43;;;;;;;3.80;3.40;;;5.20;99.90;;;;;;5031093;28;20052;-87
2022/01/29 09:28:12;;;;;;;3.53;3.13;;;5.30;99.90;;;;;;5031184;28;20053;-86
2022/01/29 09:30:40;;;;;;;3.45;3.15;;;5.40;99.90;;;;;;5015780;28;20054;-87
2022/01/29 09:33:07;;;;;;;3.47;2.50;;;5.40;99.90;;;;;;5031196;28;20042;-88
2022/01/29 09:35:34;;;;;;;2.95;2.75;;;5.30;99.90;;;;;;5015277;28;20145;-86
2022/01/29 09:38:01;;;;;;;2.83;2.63;;;5.30;99.90;;;;;;5029921;28;20056;-89
2022/01/29 09:40:27;;;;;;;2.83;2.47;;;5.40;99.90;;;;;;5015893;28;20070;-88
2022/01/29 09:42:54;;;;;;;2.47;2.05;;;5.40;99.90;;;;;;5015463;28;20092;-86
2022/01/29 09:45:23;;;;;;;2.20;1.98;;;5.40;99.90;;;;;;5015409;28;20065;-86
2022/01/29 09:47:51;;;;;;;4.70;2.20;;;5.40;99.90;;;;;;5014532;28;20178;-89
2022/01/29 09:50:18;;;;;;;2.50;2.15;;;5.50;99.90;;;;;;5031204;28;20057;-87
2022/01/29 09:52:45;;;;;;;1.77;1.67;;;5.60;99.90;;;;;;5014684;28;20054;-88
2022/01/29 09:55:13;;;;;;;1.67;1.58;;;5.70;99.90;;;;;;5030733;28;20128;-85
2022/01/29 09:57:39;;;;;;;1.80;1.60;;;5.70;99.90;;;;;;5030996;28;20144;-88
2022/01/29 10:00:08;;;;;;;2.25;2.05;;;5.80;99.90;;;;;;5030571;28;20633;-87
2022/01/29 10:02:34;;;;;;;1.60;1.50;;;5.90;99.90;;;;;;5030765;28;20046;-87
2022/01/29 10:05:04;;;;;;;1.40;1.17;;;5.90;99.90;;;;;;5030195;28;20046;-85
2022/01/29 10:07:31;;;;;;;1.38;1.27;;;5.90;99.90;;;;;;5014256;28;20144;-85
2022/01/29 10:09:59;;;;;;;1.27;1.17;;;6.00;99.90;;;;;;5013702;28;20050;-85
2022/01/29 10:12:31;;;;;;;0.80;0.80;;;6.00;99.90;;;;;;5030509;28;20089;-87
2022/01/29 10:15:05;;;;;;;1.65;1.00;;;6.10;99.90;;;;;;5030178;28;20474;-86
2022/01/29 10:17:49;;;;;;;0.88;0.88;;;6.20;99.90;;;;;;5030101;28;20057;-85
2022/01/29 10:20:18;;;;;;;0.80;0.80;;;6.40;99.90;;;;;;5030188;28;20057;-85
2022/01/29 10:22:48;;;;;;;0.80;0.80;;;6.60;99.90;;;;;;5014359;28;20050;-87
2022/01/29 10:25:18;;;;;;;1.23;0.70;;;6.70;99.90;;;;;;5029670;28;20056;-85
2022/01/29 10:28:12;;;;;;;0.70;0.70;;;6.70;99.90;;;;;;5030073;28;20088;-85
2022/01/29 10:30:47;;;;;;;0.70;0.70;;;6.80;99.90;;;;;;5029846;28;20058;-84
2022/01/29 10:33:38;;;;;;;0.77;0.77;;;6.80;99.90;;;;;;5029917;28;20052;-87
2022/01/29 10:36:09;;;;;;;0.63;0.57;;;6.70;99.90;;;;;;5014480;28;20050;-85
2022/01/29 10:38:58;;;;;;;0.60;0.60;;;6.80;99.90;;;;;;5014463;28;20050;-86
2022/01/29 10:41:30;;;;;;;0.50;0.50;;;6.80;99.90;;;;;;5014530;28;20050;-87
2022/01/29 10:46:48;;;;;;;0.60;0.45;;;6.90;99.90;;;;;;5014195;28;20046;-86
2022/01/29 10:49:27;;;;;;;0.70;0.50;;;7.00;99.90;;;;;;5013860;28;20088;-86
2022/01/29 10:51:56;;;;;;;0.35;0.35;;;7.00;99.90;;;;;;5014086;28;20372;-89
2022/01/29 10:54:24;;;;;;;0.38;0.38;;;7.00;99.90;;;;;;5029379;28;20116;-88
2022/01/29 10:56:52;;;;;;;0.45;0.45;;;6.90;99.90;;;;;;5014211;28;20064;-92
2022/01/29 10:59:20;;;;;;;0.40;0.40;;;6.80;99.90;;;;;;5029896;28;20060;-89
2022/01/29 11:01:56;;;;;;;0.40;0.40;;;6.80;99.90;;;;;;5029905;28;20045;-89
2022/01/29 11:04:25;;;;;;;0.30;0.30;;;7.00;99.90;;;;;;5014461;28;20585;-86
2022/01/29 11:06:53;;;;;;;0.40;0.40;;;7.00;99.90;;;;;;5029263;28;20133;-87
2022/01/29 11:09:21;;;;;;;0.75;0.30;;;7.10;99.90;;;;;;5029397;28;20054;-92
2022/01/29 11:11:50;;;;;;;0.40;0.40;;;6.90;99.90;;;;;;5012998;28;20056;-86
2022/01/29 11:14:19;;;;;;;0.50;0.50;;;7.10;99.90;;;;;;5029374;28;20049;-86
2022/01/29 11:16:47;;;;;;;0.40;0.40;;;7.20;99.90;;;;;;5013345;28;20046;-88
2022/01/29 11:19:20;;;;;;;0.40;0.40;;;7.00;99.90;;;;;;5028775;28;20053;-89
2022/01/29 11:21:50;;;;;;;0.30;0.30;;;6.90;99.90;;;;;;5029174;28;20414;-85
2022/01/29 11:24:23;;;;;;;0.22;0.22;;;6.80;99.90;;;;;;5015165;28;20099;-87
2022/01/29 11:26:50;;;;;;;0.40;0.40;;;6.90;99.90;;;;;;5014293;28;20136;-87
2022/01/29 11:29:24;;;;;;;0.30;0.30;;;6.80;99.90;;;;;;5013229;28;20407;-86
2022/01/29 11:32:25;;;;;;;0.40;0.40;;;6.80;99.90;;;;;;5028945;28;20063;-86
2022/01/29 11:35:13;;;;;;;0.60;0.60;;;7.00;99.90;;;;;;5012677;28;20052;-88
2022/01/29 11:37:46;;;;;;;0.52;0.50;;;6.90;99.90;;;;;;5013635;28;20058;-86
2022/01/29 11:40:20;;;;;;;0.40;0.40;;;6.90;99.90;;;;;;5028853;28;20486;-86
2022/01/29 11:43:06;;;;;;;0.40;0.40;;;6.90;99.90;;;;;;5013915;28;20050;-87
2022/01/29 11:45:43;;;;;;;0.82;0.70;;;6.80;99.90;;;;;;5029141;28;20053;-86
2022/01/29 11:48:26;;;;;;;0.52;0.52;;;6.70;99.90;;;;;;5029365;28;20703;-88
2022/01/29 11:50:55;;;;;;;0.73;0.73;;;6.70;99.90;;;;;;5028961;28;20050;-86
2022/01/29 11:53:24;;;;;;;0.60;0.60;;;6.70;99.90;;;;;;5029039;28;20050;-88
2022/01/29 11:55:55;;;;;;;0.75;0.75;;;6.70;99.90;;;;;;5028965;28;20108;-86
2022/01/29 11:58:27;;;;;;;0.60;0.60;;;6.80;99.90;;;;;;5013784;28;20129;-87
2022/01/29 12:01:00;;;;;;;1.27;0.88;;;6.80;99.90;;;;;;5028073;28;20060;-86
2022/01/29 12:03:33;;;;;;;0.57;0.57;;;6.80;99.90;;;;;;5029204;28;20153;-90
2022/01/29 12:06:21;;;;;;;0.60;0.60;;;6.80;99.90;;;;;;5028433;28;20066;-86
2022/01/29 12:08:57;;;;;;;1.00;0.90;;;6.70;99.90;;;;;;5028801;28;20049;-87
2022/01/29 12:11:25;;;;;;;1.17;1.08;;;6.70;99.90;;;;;;5028397;28;20064;-86
2022/01/29 12:14:13;;;;;;;1.02;1.02;;;6.70;99.90;;;;;;5028546;28;20070;-86
2022/01/29 12:16:47;;;;;;;1.10;1.10;;;6.70;99.90;;;;;;5028976;28;20050;-86
2022/01/29 12:19:32;;;;;;;0.85;0.85;;;6.60;99.90;;;;;;5028774;28;20050;-86
2022/01/29 12:22:00;;;;;;;1.33;1.10;;;6.60;99.90;;;;;;5012830;28;20133;-88
2022/01/29 12:24:26;;;;;;;2.38;1.17;;;6.50;99.90;;;;;;5013423;28;20046;-86
2022/01/29 12:26:55;;;;;;;1.10;1.00;;;6.50;99.90;;;;;;5028487;28;20124;-86
2022/01/29 12:29:22;;;;;;;1.13;1.10;;;6.60;99.90;;;;;;5028248;28;20049;-86
2022/01/29 12:31:50;;;;;;;1.30;1.20;;;6.60;99.90;;;;;;5028413;28;20054;-86
2022/01/29 12:34:17;;;;;;;1.10;1.10;;;6.50;99.90;;;;;;5028293;28;20045;-91
2022/01/29 12:36:44;;;;;;;1.70;1.55;;;6.40;99.90;;;;;;5012877;28;20054;-86
2022/01/29 12:39:20;;;;;;;1.33;1.23;;;6.40;99.90;;;;;;5028639;28;20054;-87
2022/01/29 12:42:04;;;;;;;1.10;1.10;;;6.30;99.90;;;;;;5028593;28;20054;-87
2022/01/29 12:44:31;;;;;;;1.30;1.20;;;6.30;99.90;;;;;;5028216;28;20552;-85
2022/01/29 12:46:58;;;;;;;1.70;1.60;;;6.20;99.90;;;;;;5013001;28;20444;-88
2022/01/29 12:49:25;;;;;;;1.40;1.30;;;6.10;99.90;;;;;;5028506;28;20130;-87
2022/01/29 12:51:57;;;;;;;1.70;1.60;;;6.10;99.90;;;;;;5013190;28;20486;-87
2022/01/29 12:54:26;;;;;;;1.70;1.60;;;6.10;99.90;;;;;;5028705;28;20138;-86
2022/01/29 12:56:55;;;;;;;2.28;1.50;;;6.10;99.90;;;;;;5028988;28;20056;-88
2022/01/29 12:59:22;;;;;;;1.48;1.40;;;6.00;99.90;;;;;;5013108;28;20058;-89
2022/01/29 13:01:49;;;;;;;1.42;1.20;;;6.00;99.90;;;;;;5013107;28;20052;-90
2022/01/29 13:04:18;;;;;;;2.05;1.27;;;5.90;99.90;;;;;;5028683;28;20054;-87
2022/01/29 13:06:46;;;;;;;1.65;1.42;;;5.90;99.90;;;;;;5028559;28;20499;-88
2022/01/29 13:09:24;;;;;;;1.27;1.23;;;6.00;99.90;;;;;;5028841;28;20500;-89
2022/01/29 13:12:02;;;;;;;1.30;1.20;;;6.00;99.90;;;;;;5014119;28;20144;-87
2022/01/29 13:14:30;;;;;;;1.40;1.30;;;6.10;99.90;;;;;;5031996;28;20052;-86
2022/01/29 13:16:59;;;;;;;1.40;1.30;;;6.10;99.90;;;;;;5031914;28;20479;-87